createdAt,value
2023-05-19T00:01:20.387Z,7.41
2023-05-19T00:04:02.578Z,7.40
2023-05-19T00:06:34.396Z,7.40
2023-05-19T00:09:02.184Z,7.12
2023-05-19T00:11:29.851Z,6.92
2023-05-19T00:13:59.243Z,6.91
2023-05-19T00:16:28.016Z,6.93
2023-05-19T00:18:54.955Z,6.84
2023-05-19T00:21:21.721Z,6.81
2023-05-19T00:23:48.396Z,6.75
2023-05-19T00:26:15.317Z,6.68
2023-05-19T00:28:51.387Z,6.69
2023-05-19T00:31:18.165Z,6.69
2023-05-19T00:33:46.474Z,6.70
2023-05-19T00:36:13.352Z,6.73
2023-05-19T00:38:40.093Z,6.69
2023-05-19T00:41:07.534Z,6.73
2023-05-19T00:43:34.721Z,6.78
2023-05-19T00:46:01.565Z,6.81
2023-05-19T00:48:28.584Z,6.80
2023-05-19T00:51:06.874Z,6.78
2023-05-19T00:53:34.953Z,6.83
2023-05-19T00:56:03.109Z,6.88
2023-05-19T00:58:32.638Z,6.89
2023-05-19T01:01:04.344Z,6.93
2023-05-19T01:03:33.008Z,6.94
2023-05-19T01:06:05.299Z,6.95
2023-05-19T01:08:37.134Z,6.99
2023-05-19T01:11:08.317Z,7.07
2023-05-19T01:13:36.389Z,6.99
2023-05-19T01:16:10.241Z,7.04
2023-05-19T01:19:02.388Z,7.07
2023-05-19T01:22:01.259Z,6.99
2023-05-19T01:24:46.855Z,7.00
2023-05-19T01:27:52.394Z,6.98
2023-05-19T01:30:41.273Z,7.00
2023-05-19T01:33:11.086Z,7.00
2023-05-19T01:35:40.447Z,7.00
2023-05-19T01:38:11.986Z,7.03
2023-05-19T01:40:41.618Z,7.07
2023-05-19T01:43:11.789Z,7.03
2023-05-19T01:45:38.873Z,7.04
2023-05-19T01:48:08.470Z,7.08
2023-05-19T01:50:47.229Z,7.10
2023-05-19T01:53:19.002Z,7.10
2023-05-19T01:55:51.608Z,7.21
2023-05-19T01:58:55.536Z,7.24
2023-05-19T02:01:40.951Z,7.19
2023-05-19T02:04:25.172Z,7.26
2023-05-19T02:07:23.204Z,7.12
2023-05-19T02:09:50.585Z,7.20
2023-05-19T02:12:28.917Z,7.17
2023-05-19T02:15:06.697Z,7.15
2023-05-19T02:17:40.201Z,7.25
2023-05-19T02:20:12.129Z,7.26
2023-05-19T02:26:25.129Z,7.16
2023-05-19T02:31:36.499Z,7.15
2023-05-19T02:34:04.126Z,7.18
2023-05-19T02:36:35.811Z,7.12
2023-05-19T02:39:04.493Z,7.18
2023-05-19T02:41:32.944Z,7.16
2023-05-19T02:44:00.327Z,7.01
2023-05-19T02:46:37.026Z,7.01
2023-05-19T02:49:04.076Z,6.97
2023-05-19T02:51:31.133Z,7.00
2023-05-19T02:53:57.981Z,7.04
2023-05-19T02:56:24.718Z,7.08
2023-05-19T02:58:52.731Z,7.12
2023-05-19T03:01:22.176Z,7.16
2023-05-19T03:03:49.286Z,7.14
2023-05-19T03:06:18.039Z,7.15
2023-05-19T03:08:45.124Z,7.19
2023-05-19T03:11:11.908Z,7.08
2023-05-19T03:13:38.835Z,6.98
2023-05-19T03:16:08.094Z,7.06
2023-05-19T03:18:35.489Z,7.17
2023-05-19T03:21:02.202Z,7.16
2023-05-19T03:23:28.917Z,7.07
2023-05-19T03:25:56.336Z,7.03
2023-05-19T03:28:23.515Z,6.92
2023-05-19T03:30:51.150Z,6.93
2023-05-19T03:33:26.343Z,6.98
2023-05-19T03:35:54.248Z,7.02
2023-05-19T03:38:21.900Z,6.94
2023-05-19T03:40:55.264Z,6.90
2023-05-19T03:43:22.614Z,6.99
2023-05-19T03:45:57.110Z,7.08
2023-05-19T03:48:52.153Z,7.17
2023-05-19T03:55:02.905Z,7.25
2023-05-19T03:57:36.597Z,7.27
2023-05-19T04:00:17.032Z,7.29
2023-05-19T04:05:56.960Z,7.38
2023-05-19T04:08:23.744Z,7.41
2023-05-19T04:10:50.508Z,7.37
2023-05-19T04:13:17.273Z,7.27
2023-05-19T04:15:44.111Z,7.36
2023-05-19T04:18:10.906Z,7.48
2023-05-19T04:20:40.157Z,7.42
2023-05-19T04:23:06.890Z,7.43
2023-05-19T04:25:35.964Z,7.47
2023-05-19T04:28:06.691Z,7.56
2023-05-19T04:33:22.492Z,7.41
2023-05-19T04:35:59.173Z,7.57
2023-05-19T04:38:28.611Z,7.65
2023-05-19T04:40:56.849Z,7.73
2023-05-19T04:43:24.099Z,7.86
2023-05-19T04:45:51.513Z,7.92
2023-05-19T04:48:21.689Z,7.96
2023-05-19T04:50:49.074Z,7.85
2023-05-19T04:53:15.964Z,7.73
2023-05-19T04:55:42.956Z,7.75
2023-05-19T04:58:09.806Z,7.86
2023-05-19T05:00:39.931Z,7.84
2023-05-19T05:03:08.538Z,8.00
2023-05-19T05:18:51.769Z,8.48
2023-05-19T05:21:20.544Z,8.50
2023-05-19T05:23:47.827Z,8.49
2023-05-19T05:26:19.819Z,8.38
2023-05-19T05:28:49.625Z,8.48
2023-05-19T05:31:17.081Z,8.61
2023-05-19T05:33:44.964Z,8.80
2023-05-19T05:36:13.793Z,8.86
2023-05-19T05:38:40.826Z,8.92
2023-05-19T05:41:07.762Z,8.87
2023-05-19T05:43:35.016Z,8.87
2023-05-19T05:46:03.743Z,8.76
2023-05-19T05:48:31.099Z,8.87
2023-05-19T05:50:59.603Z,8.73
2023-05-19T05:53:32.353Z,8.65
2023-05-19T05:56:01.237Z,8.75
2023-05-19T05:58:37.741Z,8.57
2023-05-19T06:01:05.470Z,8.58
2023-05-19T06:03:33.557Z,8.48
2023-05-19T06:06:05.081Z,8.67
2023-05-19T06:08:31.924Z,8.48
2023-05-19T06:11:00.172Z,8.37
2023-05-19T06:13:29.527Z,8.43
2023-05-19T06:15:56.677Z,8.46
2023-05-19T06:18:28.435Z,8.83
2023-05-19T06:20:55.528Z,9.05
2023-05-19T06:23:22.418Z,9.05
2023-05-19T06:25:49.488Z,9.06
2023-05-19T06:28:16.285Z,9.31
2023-05-19T06:30:43.525Z,9.05
2023-05-19T06:33:36.608Z,9.06
2023-05-19T06:36:03.670Z,9.00
2023-05-19T06:38:31.559Z,8.93
2023-05-19T06:40:58.843Z,9.01
2023-05-19T06:43:25.807Z,8.99
2023-05-19T06:45:56.932Z,8.94
2023-05-19T06:48:25.659Z,9.00
2023-05-19T06:50:52.425Z,8.97
2023-05-19T06:53:20.672Z,8.93
2023-05-19T06:55:58.604Z,9.02
2023-05-19T06:58:28.286Z,9.25
2023-05-19T07:00:56.030Z,9.27
2023-05-19T07:03:26.111Z,9.48
2023-05-19T07:05:54.368Z,9.57
2023-05-19T07:08:21.135Z,9.64
2023-05-19T07:10:47.898Z,9.61
2023-05-19T07:13:16.561Z,9.82
2023-05-19T07:15:43.354Z,10.04
2023-05-19T07:18:10.139Z,10.01
2023-05-19T07:20:36.909Z,9.75
2023-05-19T07:23:05.318Z,10.13
2023-05-19T07:25:33.288Z,10.48
2023-05-19T07:28:00.201Z,10.19
2023-05-19T07:30:28.629Z,10.33
2023-05-19T07:32:55.577Z,10.52
2023-05-19T07:35:25.379Z,10.35
2023-05-19T07:37:52.652Z,10.43
2023-05-19T07:40:19.438Z,10.19
2023-05-19T07:42:46.436Z,10.08
2023-05-19T07:45:13.161Z,10.13
2023-05-19T07:47:39.948Z,10.21
2023-05-19T07:50:07.415Z,10.11
2023-05-19T07:52:34.138Z,10.20
2023-05-19T07:55:00.819Z,10.05
2023-05-19T07:57:27.511Z,10.12
2023-05-19T07:59:54.136Z,10.26
2023-05-19T08:02:20.837Z,10.10
2023-05-19T08:04:49.589Z,9.78
2023-05-19T08:07:17.408Z,9.91
2023-05-19T08:09:44.168Z,9.76
2023-05-19T08:12:11.084Z,9.94
2023-05-19T08:14:38.718Z,9.93
2023-05-19T08:17:05.483Z,9.81
2023-05-19T08:19:32.187Z,9.75
2023-05-19T08:22:01.172Z,9.77
2023-05-19T08:24:31.004Z,9.79
2023-05-19T08:26:58.414Z,10.05
2023-05-19T08:29:25.125Z,10.00
2023-05-19T08:31:53.281Z,10.11
2023-05-19T08:34:20.118Z,10.14
2023-05-19T08:36:47.743Z,10.51
2023-05-19T08:39:16.283Z,10.51
2023-05-19T08:41:42.888Z,10.74
2023-05-19T08:44:10.021Z,10.27
2023-05-19T08:46:37.042Z,10.30
2023-05-19T08:49:08.663Z,10.45
2023-05-19T08:51:49.678Z,10.67
2023-05-19T08:54:18.174Z,10.59
2023-05-19T08:56:48.222Z,10.80
2023-05-19T08:59:15.446Z,10.26
2023-05-19T09:01:46.430Z,10.23
2023-05-19T09:04:13.491Z,10.38
2023-05-19T09:06:45.095Z,10.50
2023-05-19T09:09:12.187Z,10.68
2023-05-19T09:11:38.900Z,10.78
2023-05-19T09:14:05.876Z,10.61
2023-05-19T09:16:33.968Z,10.49
2023-05-19T09:19:01.363Z,10.23
2023-05-19T09:21:32.492Z,10.18
2023-05-19T09:24:05.075Z,10.31
2023-05-19T09:26:40.055Z,10.32
2023-05-19T09:29:17.288Z,10.60
2023-05-19T09:31:56.026Z,10.44
2023-05-19T09:34:24.913Z,10.69
2023-05-19T09:36:53.606Z,10.83
2023-05-19T09:39:22.694Z,10.74
2023-05-19T09:41:59.168Z,10.74
2023-05-19T09:44:30.686Z,11.12
2023-05-19T09:46:58.668Z,10.98
2023-05-19T09:49:29.735Z,11.29
2023-05-19T09:52:03.878Z,11.08
2023-05-19T09:54:32.497Z,11.04
2023-05-19T09:57:05.235Z,10.92
2023-05-19T09:59:34.105Z,11.10
2023-05-19T10:02:02.452Z,11.38
2023-05-19T10:04:30.265Z,11.86
2023-05-19T10:07:01.367Z,12.58
2023-05-19T10:09:29.973Z,12.17
2023-05-19T10:11:57.723Z,12.08
2023-05-19T10:14:29.109Z,11.96
2023-05-19T10:16:58.655Z,12.16
2023-05-19T10:19:27.254Z,12.56
2023-05-19T10:21:54.708Z,12.33
2023-05-19T10:24:21.868Z,12.09
2023-05-19T10:27:10.324Z,12.45
2023-05-19T10:29:41.806Z,12.59
2023-05-19T10:32:15.343Z,12.77
2023-05-19T10:35:13.986Z,12.85
2023-05-19T10:38:14.627Z,13.41
2023-05-19T10:40:51.972Z,13.09
2023-05-19T10:43:21.712Z,13.20
2023-05-19T10:45:51.707Z,12.76
2023-05-19T10:48:20.639Z,12.48
2023-05-19T10:50:48.246Z,12.58
2023-05-19T10:53:19.233Z,12.56
2023-05-19T10:55:52.098Z,12.90
2023-05-19T10:58:43.376Z,12.54
2023-05-19T11:01:14.472Z,12.66
2023-05-19T11:03:47.031Z,12.53
2023-05-19T11:06:28.081Z,12.76
2023-05-19T11:09:15.456Z,12.92
2023-05-19T11:11:51.097Z,12.75
2023-05-19T11:14:23.264Z,13.23
2023-05-19T11:16:52.612Z,13.03
2023-05-19T11:19:33.274Z,13.34
2023-05-19T11:22:13.643Z,12.78
2023-05-19T11:24:46.355Z,12.61
2023-05-19T11:27:31.946Z,12.68
2023-05-19T11:30:05.419Z,12.84
2023-05-19T11:32:39.535Z,12.97
2023-05-19T11:35:07.999Z,12.96
2023-05-19T11:37:35.117Z,12.96
2023-05-19T11:40:03.003Z,13.06
2023-05-19T11:42:29.880Z,13.50
2023-05-19T11:44:56.689Z,13.60
2023-05-19T11:47:23.646Z,13.77
2023-05-19T11:49:56.742Z,13.69
2023-05-19T11:52:30.517Z,14.04
2023-05-19T11:55:01.572Z,13.87
2023-05-19T11:57:28.394Z,13.89
2023-05-19T11:59:56.823Z,13.61
2023-05-19T12:02:25.435Z,13.80
2023-05-19T12:04:53.505Z,13.46
2023-05-19T12:07:23.501Z,13.36
2023-05-19T12:09:51.749Z,13.74
2023-05-19T12:12:20.406Z,13.71
2023-05-19T12:14:49.535Z,13.88
2023-05-19T12:17:19.786Z,13.94
2023-05-19T12:19:50.907Z,14.05
2023-05-19T12:22:18.152Z,14.17
2023-05-19T12:24:47.353Z,14.34
2023-05-19T12:27:24.430Z,14.09
2023-05-19T12:29:54.961Z,14.54
2023-05-19T12:32:26.597Z,14.65
2023-05-19T12:34:55.587Z,14.45
2023-05-19T12:37:22.834Z,14.47
2023-05-19T12:39:50.430Z,14.80
2023-05-19T12:42:17.248Z,14.71
2023-05-19T12:44:52.740Z,14.88
2023-05-19T12:47:20.395Z,14.96
2023-05-19T12:49:59.465Z,15.08
2023-05-19T12:52:29.137Z,15.22
2023-05-19T12:55:05.783Z,15.39
2023-05-19T12:57:36.747Z,15.54
2023-05-19T13:00:10.991Z,15.41
2023-05-19T13:02:55.356Z,15.35
2023-05-19T13:05:22.884Z,15.09
2023-05-19T13:08:01.916Z,14.95
2023-05-19T13:10:29.677Z,15.01
2023-05-19T13:12:58.960Z,15.63
2023-05-19T13:15:28.048Z,15.95
2023-05-19T13:17:55.172Z,15.95
2023-05-19T13:20:22.166Z,16.10
2023-05-19T13:22:49.702Z,15.90
2023-05-19T13:25:16.848Z,15.34
2023-05-19T13:27:46.192Z,15.34
2023-05-19T13:30:13.115Z,15.49
2023-05-19T13:32:39.895Z,15.63
2023-05-19T13:35:07.027Z,15.50
2023-05-19T13:37:35.488Z,15.65
2023-05-19T13:40:02.748Z,15.76
2023-05-19T13:42:29.694Z,16.00
2023-05-19T13:44:56.816Z,15.94
2023-05-19T13:47:24.037Z,15.95
2023-05-19T13:49:51.473Z,15.79
2023-05-19T13:52:19.140Z,16.04
2023-05-19T13:54:45.797Z,15.89
2023-05-19T13:57:12.503Z,15.85
2023-05-19T13:59:52.937Z,15.96
2023-05-19T14:02:26.200Z,15.82
2023-05-19T14:04:52.926Z,15.91
2023-05-19T14:07:19.642Z,15.91
2023-05-19T14:09:46.359Z,15.95
2023-05-19T14:12:13.895Z,16.17
2023-05-19T14:14:40.797Z,15.92
2023-05-19T14:17:07.623Z,15.88
2023-05-19T14:19:34.423Z,15.97
2023-05-19T14:22:01.204Z,15.92
2023-05-19T14:24:27.879Z,15.88
2023-05-19T14:26:54.612Z,15.99
2023-05-19T14:29:21.426Z,15.99
2023-05-19T14:31:48.439Z,15.97
2023-05-19T14:34:17.951Z,16.12
2023-05-19T14:36:44.773Z,16.50
2023-05-19T14:39:12.017Z,16.94
2023-05-19T14:41:38.736Z,16.82
2023-05-19T14:44:05.615Z,16.57
2023-05-19T14:46:32.496Z,16.38
2023-05-19T14:48:59.186Z,16.18
2023-05-19T14:51:25.986Z,15.99
2023-05-19T14:53:52.677Z,16.13
2023-05-19T14:56:19.402Z,16.33
2023-05-19T14:58:46.080Z,16.18
2023-05-19T15:01:12.783Z,16.18
2023-05-19T15:03:39.531Z,16.13
2023-05-19T15:06:12.112Z,16.25
2023-05-19T15:08:40.687Z,16.18
2023-05-19T15:11:07.883Z,16.18
2023-05-19T15:13:34.667Z,16.11
2023-05-19T15:16:16.225Z,16.05
2023-05-19T15:18:44.169Z,16.09
2023-05-19T15:21:11.018Z,16.03
2023-05-19T15:23:37.753Z,16.07
2023-05-19T15:26:04.616Z,15.99
2023-05-19T15:28:32.158Z,16.06
2023-05-19T15:30:58.945Z,16.18
2023-05-19T15:33:25.810Z,16.24
2023-05-19T15:35:52.586Z,16.29
2023-05-19T15:38:20.098Z,16.28
2023-05-19T15:40:46.978Z,16.27
2023-05-19T15:43:14.141Z,16.48
2023-05-19T15:45:40.995Z,16.59
2023-05-19T15:48:08.348Z,16.53
2023-05-19T15:50:35.780Z,16.45
2023-05-19T15:53:02.894Z,16.39
2023-05-19T15:55:29.649Z,16.37
2023-05-19T15:57:56.374Z,16.44
2023-05-19T16:00:23.672Z,16.50
2023-05-19T16:02:51.215Z,16.47
2023-05-19T16:05:18.373Z,16.47
2023-05-19T16:07:45.202Z,16.64
2023-05-19T16:10:12.074Z,16.67
2023-05-19T16:12:38.826Z,16.84
2023-05-19T16:15:06.034Z,16.95
2023-05-19T16:17:32.869Z,16.94
2023-05-19T16:19:59.608Z,17.02
2023-05-19T16:22:27.198Z,17.01
2023-05-19T16:24:53.985Z,16.75
2023-05-19T16:27:20.789Z,16.84
2023-05-19T16:29:47.505Z,16.87
2023-05-19T16:32:14.382Z,16.83
2023-05-19T16:34:41.221Z,16.83
2023-05-19T16:37:08.000Z,16.73
2023-05-19T16:39:37.893Z,16.73
2023-05-19T16:42:05.026Z,16.67
2023-05-19T16:44:31.789Z,16.63
2023-05-19T16:46:58.533Z,16.53
2023-05-19T16:49:25.268Z,16.44
2023-05-19T16:51:53.136Z,16.26
2023-05-19T16:54:21.013Z,16.33
2023-05-19T16:56:47.825Z,16.20
2023-05-19T16:59:14.542Z,16.17
2023-05-19T17:01:41.476Z,16.11
2023-05-19T17:04:08.422Z,16.06
2023-05-19T17:06:35.104Z,15.91
2023-05-19T17:09:02.333Z,15.70
2023-05-19T17:11:29.133Z,15.73
2023-05-19T17:13:56.681Z,15.68
2023-05-19T17:16:24.013Z,15.61
2023-05-19T17:18:51.683Z,15.59
2023-05-19T17:21:18.493Z,15.47
2023-05-19T17:23:45.220Z,15.35
2023-05-19T17:26:12.050Z,15.28
2023-05-19T17:28:38.918Z,15.14
2023-05-19T17:31:12.442Z,15.04
2023-05-19T17:33:39.656Z,15.00
2023-05-19T17:36:07.273Z,14.95
2023-05-19T17:38:34.361Z,14.92
2023-05-19T17:41:03.055Z,14.88
2023-05-19T17:43:30.312Z,14.91
2023-05-19T17:45:58.784Z,14.84
2023-05-19T17:48:27.020Z,14.69
2023-05-19T17:50:53.757Z,14.62
2023-05-19T17:53:20.751Z,14.16
2023-05-19T17:55:51.610Z,14.06
2023-05-19T17:58:18.964Z,14.06
2023-05-19T18:00:46.263Z,13.99
2023-05-19T18:03:13.334Z,13.96
2023-05-19T18:05:43.202Z,14.01
2023-05-19T18:08:10.818Z,14.02
2023-05-19T18:10:40.863Z,13.95
2023-05-19T18:13:09.354Z,13.82
2023-05-19T18:15:36.629Z,13.54
2023-05-19T18:18:05.657Z,13.49
2023-05-19T18:20:33.976Z,13.63
2023-05-19T18:23:01.078Z,13.61
2023-05-19T18:25:27.805Z,13.82
2023-05-19T18:27:55.773Z,13.98
2023-05-19T18:30:23.386Z,14.10
2023-05-19T18:32:50.235Z,14.15
2023-05-19T18:35:17.041Z,14.19
2023-05-19T18:37:43.744Z,14.20
2023-05-19T18:40:10.900Z,14.23
2023-05-19T18:42:37.854Z,14.33
2023-05-19T18:45:05.264Z,14.34
2023-05-19T18:47:32.011Z,14.30
2023-05-19T18:49:58.921Z,14.24
2023-05-19T18:52:28.319Z,14.19
2023-05-19T18:54:55.450Z,14.12
2023-05-19T18:57:22.124Z,14.06
2023-05-19T18:59:48.798Z,13.91
2023-05-19T19:02:15.495Z,13.76
2023-05-19T19:04:42.228Z,13.71
2023-05-19T19:07:08.946Z,13.65
2023-05-19T19:09:35.746Z,13.56
2023-05-19T19:12:02.493Z,13.52
2023-05-19T19:14:29.273Z,13.46
2023-05-19T19:16:56.194Z,13.43
2023-05-19T19:19:23.784Z,13.33
2023-05-19T19:21:50.702Z,13.22
2023-05-19T19:24:17.442Z,13.06
2023-05-19T19:26:44.129Z,13.20
2023-05-19T19:29:10.919Z,13.38
2023-05-19T19:31:38.040Z,13.43
2023-05-19T19:34:09.483Z,13.56
2023-05-19T19:36:36.449Z,13.72
2023-05-19T19:39:03.261Z,13.87
2023-05-19T19:41:30.264Z,13.84
2023-05-19T19:43:56.970Z,13.97
2023-05-19T19:46:23.656Z,14.06
2023-05-19T19:48:51.084Z,14.06
2023-05-19T19:51:17.829Z,14.06
2023-05-19T19:53:44.549Z,14.03
2023-05-19T19:56:11.485Z,13.93
2023-05-19T19:58:38.227Z,13.86
2023-05-19T20:01:06.153Z,13.83
2023-05-19T20:03:33.850Z,13.63
2023-05-19T20:06:01.148Z,13.40
2023-05-19T20:08:27.904Z,13.16
2023-05-19T20:10:55.104Z,12.99
2023-05-19T20:13:21.922Z,12.92
2023-05-19T20:15:48.719Z,13.22
2023-05-19T20:18:15.792Z,13.49
2023-05-19T20:20:43.759Z,13.67
2023-05-19T20:23:10.562Z,13.76
2023-05-19T20:25:53.671Z,13.77
2023-05-19T20:28:26.346Z,13.60
2023-05-19T20:30:53.112Z,13.43
2023-05-19T20:33:19.810Z,13.36
2023-05-19T20:35:46.465Z,13.42
2023-05-19T20:38:13.191Z,13.32
2023-05-19T20:40:39.954Z,13.26
2023-05-19T20:43:06.626Z,13.26
2023-05-19T20:45:33.539Z,13.15
2023-05-19T20:48:02.753Z,13.15
2023-05-19T20:50:29.703Z,13.32
2023-05-19T20:52:56.490Z,13.47
2023-05-19T20:55:23.248Z,13.46
2023-05-19T20:57:49.968Z,13.46
2023-05-19T21:00:17.432Z,13.49
2023-05-19T21:02:44.603Z,13.32
2023-05-19T21:05:11.932Z,13.44
2023-05-19T21:07:38.743Z,13.47
2023-05-19T21:10:06.394Z,13.37
2023-05-19T21:12:34.330Z,13.26
2023-05-19T21:15:02.157Z,13.29
2023-05-19T21:17:29.277Z,13.31
2023-05-19T21:19:59.375Z,13.27
2023-05-19T21:22:26.742Z,13.27
2023-05-19T21:24:54.325Z,13.21
2023-05-19T21:27:21.641Z,13.30
2023-05-19T21:29:53.096Z,13.35
2023-05-19T21:32:20.912Z,13.42
2023-05-19T21:34:47.879Z,13.33
2023-05-19T21:37:16.370Z,13.26
2023-05-19T21:39:43.699Z,13.24
2023-05-19T21:42:10.552Z,13.06
2023-05-19T21:44:37.366Z,12.91
2023-05-19T21:47:04.160Z,12.73
2023-05-19T21:49:31.389Z,12.63
2023-05-19T21:51:58.791Z,12.43
2023-05-19T21:54:25.537Z,12.17
2023-05-19T21:56:52.291Z,11.95
2023-05-19T21:59:23.113Z,11.61
2023-05-19T22:01:50.062Z,11.35
2023-05-19T22:04:18.497Z,11.12
2023-05-19T22:06:46.086Z,10.93
2023-05-19T22:09:12.939Z,10.73
2023-05-19T22:11:40.278Z,10.73
2023-05-19T22:14:07.123Z,10.48
2023-05-19T22:16:34.240Z,10.40
2023-05-19T22:19:01.100Z,10.18
2023-05-19T22:21:27.935Z,10.26
2023-05-19T22:23:54.680Z,10.24
2023-05-19T22:26:22.125Z,9.99
2023-05-19T22:28:50.244Z,9.95
2023-05-19T22:31:17.647Z,9.85
2023-05-19T22:33:44.515Z,9.85
2023-05-19T22:36:11.374Z,9.87
2023-05-19T22:38:38.198Z,9.85
2023-05-19T22:41:05.516Z,9.73
2023-05-19T22:43:32.375Z,9.68
2023-05-19T22:45:59.159Z,9.54
2023-05-19T22:48:26.123Z,9.58
2023-05-19T22:50:52.916Z,9.60
2023-05-19T22:53:19.654Z,9.55
2023-05-19T22:55:46.585Z,9.37
2023-05-19T22:58:13.262Z,9.33
2023-05-19T23:00:40.014Z,9.35
2023-05-19T23:03:06.778Z,9.31
2023-05-19T23:05:33.789Z,9.32
2023-05-19T23:08:00.727Z,9.26
2023-05-19T23:10:27.434Z,9.32
2023-05-19T23:12:54.163Z,9.38
2023-05-19T23:15:20.934Z,9.44
2023-05-19T23:17:47.738Z,9.48
2023-05-19T23:20:14.519Z,9.29
2023-05-19T23:22:41.305Z,9.15
2023-05-19T23:25:08.135Z,9.09
2023-05-19T23:27:35.875Z,8.90
2023-05-19T23:30:03.822Z,8.95
2023-05-19T23:32:30.916Z,8.96
2023-05-19T23:34:57.799Z,8.87
2023-05-19T23:37:24.509Z,8.98
2023-05-19T23:39:51.387Z,8.95
2023-05-19T23:42:18.225Z,8.97
2023-05-19T23:44:44.946Z,8.80
2023-05-19T23:47:11.689Z,8.83
2023-05-19T23:49:38.534Z,8.73
2023-05-19T23:52:05.555Z,8.26
2023-05-19T23:54:32.303Z,8.09
2023-05-19T23:56:59.410Z,8.17
2023-05-19T23:59:26.116Z,8.25
